Hoskings Ranch (222) Station Data

Red Flag Warning: No
Fire Weather Zone: 258
SDGE Region: Ramona
Lat/Lon: 33.083/-116.657

Observations

Time Wind Speed/Gust Temp(F) RH Fuel Moist Fuel Temp(F) Dewpt(F) Tmax(F) Tmin(F) Accum Precip 10-min Precip SL Press(mb)
2/27 11:40pm 251 14 G 24 42° 100% - - 42° 46° 37.7° - - -
2/27 11:20pm 253 13 G 20 43° 100% - - 43° 46° 37.7° - - -
2/27 11:10pm 250 12 G 20 43° 100% - - 43° 46° 37.7° - - -
2/27 11:00pm 256 13 G 21 43° 100% - - 43° 46° 37.7° - - -
2/27 10:50pm 240 20 G 30 44° 100% - - 43° 46° 37.7° - - -
2/27 10:40pm 236 25 G 35 43° 100% - - 43° 46° 37.7° - - -
2/27 10:30pm 229 26 G 35 43° 100% - - 43° 46° 37.7° - - -
2/27 10:20pm 232 25 G 37 43° 100% - - 43° 46° 37.7° - - -
2/27 10:10pm 232 24 G 33 44° 100% - - 44° 46° 37.7° - - -
2/27 10:00pm 231 25 G 35 44° 100% - - 44° 46° 37.7° - - -
2/27 9:50pm 227 25 G 38 44° 100% - - 44° 46° 37.7° - - -
2/27 9:40pm 222 24 G 37 43° 100% - - 43° 46° 37.7° - - -
2/27 9:30pm 222 24 G 35 43° 100% - - 43° 46° 37.7° - - -
2/27 9:20pm 224 21 G 31 44° 100% - - 44° 46° 37.7° - - -
2/27 9:10pm 227 23 G 33 43° 100% - - 43° 46° 37.7° - - -
2/27 9:00pm 225 24 G 34 43° 100% - - 43° 46° 37.7° - - -
2/27 8:50pm 222 20 G 30 43° 100% - - 43° 46° 37.7° - - -
2/27 8:40pm 227 17 G 24 43° 100% - - 43° 46° 37.7° - - -
2/27 8:30pm 235 13 G 17 43° 100% - - 43° 46° 37.7° - - -
2/27 8:20pm 239 12 G 17 43° 100% - - 43° 46° 37.7° - - -
2/27 8:10pm 236 8 G 15 43° 100% - - 43° 46° 37.7° - - -
2/27 8:00pm 240 8 G 13 43° 100% - - 43° 46° 37.7° - - -
2/27 7:50pm 240 9 G 13 43° 100% - - 43° 46° 37.7° - - -
2/27 7:40pm 235 10 G 14 43° 100% - - 43° 46° 37.7° - - -
2/27 7:30pm 226 14 G 22 43° 100% - - 43° 46° 37.7° - - -
2/27 7:20pm 221 13 G 22 43° 100% - - 43° 46° 37.7° - - -
2/27 7:10pm 225 13 G 20 43° 100% - - 43° 46° 37.7° - - -
2/27 7:00pm 228 14 G 18 43° 100% - - 43° 46° 37.7° - - -
2/27 6:50pm 226 15 G 25 43° 100% - - 43° 46° 37.7° - - -
2/27 6:40pm 229 13 G 23 43° 100% - - 43° 46° 37.7° - - -
2/27 6:30pm 230 14 G 28 43° 100% - - 43° 46° 37.7° - - -
2/27 6:20pm 228 16 G 23 43° 100% - - 43° 46° 37.7° - - -
2/27 6:10pm 224 18 G 30 43° 100% - - 43° 46° 37.7° - - -
2/27 6:00pm 222 18 G 27 43° 100% - - 43° 46° 37.7° - - -
2/27 5:50pm 216 16 G 26 43° 100% - - 43° 46° 37.7° - - -
2/27 5:40pm 219 18 G 25 43° 100% - - 43° 46° 37.7° - - -
2/27 5:30pm 217 20 G 30 43° 100% - - 43° 46° 37.7° - - -
2/27 5:20pm 216 19 G 26 43° 100% - - 43° 46° 37.7° - - -
2/27 5:10pm 222 20 G 29 44° 100% - - 44° 46° 37.7° - - -
2/27 5:00pm 225 20 G 28 44° 100% - - 44° 46° 37.7° - - -
2/27 4:50pm 227 16 G 23 44° 100% - - 44° 46° 37.7° - - -
2/27 4:40pm 223 15 G 24 44° 100% - - 44° 46° 37.7° - - -
2/27 4:30pm 222 15 G 21 44° 100% - - 43° 46° 37.7° - - -
2/27 4:20pm 220 16 G 22 44° 100% - - 44° 46° 37.7° - - -
2/27 4:10pm 215 17 G 26 44° 100% - - 44° 46° 37.7° - - -
2/27 4:00pm 217 18 G 23 44° 100% - - 44° 46° 37.7° - - -
2/27 3:50pm 216 21 G 29 44° 100% - - 44° 46° 37.7° - - -
2/27 3:40pm 216 22 G 29 44° 100% - - 44° 46° 37.7° - - -
2/27 3:30pm 231 21 G 31 44° 100% - - 44° 46° 37.7° - - -
2/27 3:20pm 224 20 G 31 44° 100% - - 44° 46° 37.7° - - -
2/27 3:10pm 225 20 G 33 44° 100% - - 44° 46° 37.7° - - -
2/27 3:00pm 224 24 G 33 44° 100% - - 44° 46° 37.7° - - -
2/27 2:50pm 227 24 G 35 44° 100% - - 44° 46° 37.7° - - -
2/27 2:40pm 229 21 G 29 44° 100% - - 44° 46° 37.7° - - -
2/27 2:30pm 222 25 G 33 44° 100% - - 44° 46° 37.7° - - -
2/27 2:20pm 226 26 G 39 44° 100% - - 44° 46° 37.7° - - -
2/27 2:10pm 214 26 G 38 45° 100% - - 44° 46° 37.7° - - -
2/27 2:00pm 220 23 G 35 45° 100% - - 45° 46° 37.7° - - -
2/27 1:50pm 229 20 G 31 45° 100% - - 45° 46° 37.7° - - -
2/27 1:40pm 222 24 G 31 45° 100% - - 45° 46° 37.7° - - -
2/27 1:30pm 223 26 G 36 45° 100% - - 45° 46° 37.7° - - -
2/27 1:20pm 229 23 G 34 45° 100% - - 45° 46° 37.7° - - -
2/27 1:10pm 230 22 G 30 45° 100% - - 45° 46° 37.7° - - -
2/27 1:00pm 225 26 G 35 45° 100% - - 45° 46° 37.7° - - -
2/27 12:50pm 226 23 G 36 45° 100% - - 45° 46° 37.7° - - -
2/27 12:40pm 230 21 G 32 45° 100% - - 45° 46° 37.7° - - -
2/27 12:30pm 230 17 G 33 45° 100% - - 45° 46° 37.7° - - -
2/27 12:20pm 219 20 G 29 45° 100% - - 45° 46° 37.7° - - -
2/27 12:10pm 224 16 G 25 44° 100% - - 44° 46° 37.7° - - -
2/27 12:00pm 227 18 G 26 44° 100% - - 44° 46° 37.7° - - -
2/27 11:50am 225 22 G 39 44° 100% - - 44° 46° 37.7° - - -
2/27 11:40am 223 27 G 38 44° 100% - - 44° 46° 37.7° - - -
2/27 11:30am 222 27 G 40 44° 100% - - 44° 46° 37.7° - - -
2/27 11:20am 222 21 G 33 45° 100% - - 45° 46° 37.7° - - -
2/27 11:10am 227 20 G 28 45° 100% - - 45° 46° 37.7° - - -
2/27 11:00am 223 24 G 35 45° 100% - - 45° 46° 37.7° - - -
2/27 10:50am 226 22 G 38 45° 100% - - 45° 46° 37.7° - - -
2/27 10:40am 225 26 G 39 45° 100% - - 45° 46° 37.7° - - -
2/27 10:30am 225 21 G 30 45° 100% - - 45° 46° 37.7° - - -
2/27 10:20am 227 20 G 31 45° 100% - - 45° 46° 37.7° - - -
2/27 10:10am 231 17 G 24 45° 100% - - 45° 46° 37.7° - - -
2/27 10:00am 227 20 G 27 45° 100% - - 45° 46° 37.7° - - -
2/27 9:50am 231 18 G 23 45° 100% - - 45° 46° 37.7° - - -
2/27 9:40am 240 16 G 22 45° 100% - - 45° 46° 37.7° - - -
2/27 9:30am 229 14 G 19 45° 100% - - 45° 46° 37.7° - - -
2/27 9:20am 235 15 G 21 45° 100% - - 45° 46° 37.7° - - -
2/27 9:10am 234 16 G 28 45° 100% - - 45° 46° 37.7° - - -
2/27 9:00am 224 19 G 27 45° 100% - - 45° 46° 37.7° - - -
2/27 8:50am 228 18 G 26 45° 100% - - 45° 46° 37.7° - - -
2/27 8:40am 226 19 G 25 45° 100% - - 45° 46° 37.7° - - -
2/27 8:30am 223 21 G 31 45° 100% - - 45° 46° 37.7° - - -
2/27 8:20am 225 19 G 28 45° 100% - - 45° 46° 37.7° - - -
2/27 8:10am 222 19 G 29 45° 100% - - 45° 46° 37.7° - - -
2/27 8:00am 224 19 G 27 45° 100% - - 45° 46° 37.7° - - -
2/27 7:50am 224 22 G 33 45° 100% - - 45° 46° 37.7° - - -
2/27 7:40am 221 22 G 31 46° 100% - - 46° 46° 37.7° - - -
2/27 7:30am 226 19 G 29 46° 100% - - 46° 46° 37.7° - - -
2/27 7:20am 225 20 G 30 45° 100% - - 45° 46° 37.7° - - -
2/27 7:10am 225 21 G 29 45° 100% - - 45° 45.8° 37.7° - - -
2/27 7:00am 224 20 G 30 45° 100% - - 45° 45.7° 37.7° - - -
2/27 6:50am 224 18 G 26 45° 100% - - 45° 45.5° 37.7° - - -
2/27 6:40am 225 20 G 26 45° 100% - - 45° 45.5° 37.7° - - -
2/27 6:30am 227 19 G 27 45° 100% - - 45° 45.4° 37.7° - - -
2/27 6:20am 227 15 G 23 44° 100% - - 44° 45.2° 37.7° - - -
2/27 6:10am 234 13 G 17 44° 100% - - 44° 45.2° 37.7° - - -
2/27 6:00am 235 13 G 20 44° 100% - - 44° 45.2° 37.7° - - -
2/27 5:50am 225 15 G 21 45° 100% - - 45° 45.2° 37.7° - - -
2/27 5:40am 228 16 G 22 45° 100% - - 45° 45.2° 37.7° - - -
2/27 5:30am 224 15 G 21 45° 100% - - 45° 45.2° 37.7° - - -
2/27 5:20am 221 16 G 27 45° 100% - - 45° 45.2° 37.7° - - -
2/27 5:10am 224 16 G 25 45° 100% - - 45° 45.1° 37.7° - - -
2/27 5:00am 224 14 G 19 45° 100% - - 45° 45.1° 37.7° - - -
2/27 4:50am 218 17 G 27 45° 100% - - 45° 45° 37.7° - - -
2/27 4:40am 215 15 G 21 44° 100% - - 44° 44.9° 37.7° - - -
2/27 4:30am 221 13 G 20 44° 100% - - 44° 44.5° 37.7° - - -
2/27 4:20am 220 13 G 19 44° 100% - - 44° 44.4° 37.7° - - -
2/27 4:10am 223 12 G 17 44° 100% - - 44° 44° 37.7° - - -
2/27 4:00am 228 11 G 18 43° 100% - - 43° 44° 37.7° - - -
2/27 3:50am 227 11 G 15 43° 100% - - 43° 43.6° 37.7° - - -
2/27 3:40am 231 9 G 13 43° 100% - - 43° 43° 37.7° - - -
2/27 3:30am 237 9 G 12 42° 100% - - 42° 42.9° 37.7° - - -
2/27 3:20am 242 9 G 12 42° 100% - - 42° 42.7° 37.7° - - -
2/27 3:10am 245 9 G 13 42° 100% - - 42° 42.5° 37.7° - - -
2/27 3:00am 240 10 G 13 42° 100% - - 42° 42.5° 37.7° - - -
2/27 2:50am 241 9 G 11 42° 100% - - 42° 42.4° 37.7° - - -
2/27 2:40am 241 10 G 15 42° 100% - - 42° 42.4° 37.7° - - -
2/27 2:30am 234 11 G 15 41° 100% - - 41° 41.9° 37.7° - - -
2/27 2:20am 235 11 G 14 41° 100% - - 41° 41.8° 37.7° - - -
2/27 2:10am 234 11 G 14 41° 100% - - 41° 41.8° 37.7° - - -
2/27 2:00am 241 10 G 13 41° 100% - - 41° 41.3° 37.7° - - -
2/27 1:50am 239 11 G 15 41° 100% - - 41° 41.3° 37.7° - - -
2/27 1:40am 234 11 G 15 41° 100% - - 40° 41.2° 37.7° - - -
2/27 1:30am 235 11 G 15 40° 100% - - 40° 40.6° 37.7° - - -
2/27 1:20am 240 10 G 12 40° 100% - - 40° 40.1° 37.7° - - -
2/27 1:10am 240 10 G 13 39° 100% - - 39° 39.9° 37.7° - - -
2/27 1:00am 239 10 G 13 39° 100% - - 39° 39.8° 37.7° - - -
2/27 12:50am 242 10 G 13 39° 100% - - 39° 39.4° 37.7° - - -
2/27 12:40am 240 10 G 13 39° 100% - - 39° 39.2° 37.7° - - -
2/27 12:30am 239 10 G 13 38° 100% - - 38° 38.6° 37.7° - - -
2/27 12:20am 240 11 G 13 38° 100% - - 38° 38.6° 37.7° - - -
2/27 12:10am 244 11 G 13 38° 100% - - 38° 38.6° 37.7° - - -
2/27 12:00am 240 11 G 14 38° 100% - - 38° 42° 34.7° - - -
2/26 11:50pm 233 12 G 16 39° 100% - - 38° 42° 34.7° - - -
2/26 11:40pm 230 14 G 18 38° 100% - - 38° 42° 34.7° - - -
2/26 11:30pm 229 15 G 20 38° 100% - - 38° 42° 34.7° - - -
2/26 11:20pm 225 16 G 21 38° 100% - - 38° 42° 34.7° - - -
2/26 11:10pm 227 14 G 18 38° 100% - - 38° 42° 34.7° - - -
2/26 11:00pm 236 12 G 17 38° 100% - - 38° 42° 34.7° - - -
2/26 10:50pm 224 14 G 19 38° 100% - - 37° 42° 34.7° - - -
2/26 10:40pm 228 14 G 20 38° 100% - - 37° 42° 34.7° - - -
2/26 10:30pm 226 15 G 22 37° 100% - - 37° 42° 34.7° - - -
2/26 10:20pm 227 12 G 15 37° 100% - - 37° 42° 34.7° - - -
2/26 10:10pm 231 15 G 19 37° 100% - - 37° 42° 34.7° - - -
2/26 10:00pm 230 14 G 19 37° 100% - - 37° 42° 34.7° - - -
2/26 9:50pm 230 14 G 20 38° 100% - - 38° 42° 34.7° - - -
2/26 9:40pm 238 13 G 21 38° 100% - - 38° 42° 34.7° - - -
2/26 9:30pm 234 15 G 19 38° 100% - - 38° 42° 34.7° - - -
2/26 9:20pm 243 15 G 22 38° 100% - - 38° 42° 34.7° - - -
2/26 9:10pm 241 15 G 22 38° 100% - - 38° 42° 34.7° - - -
2/26 9:00pm 239 16 G 21 38° 100% - - 38° 42° 34.7° - - -
2/26 8:50pm 237 16 G 22 38° 100% - - 38° 42° 34.7° - - -
2/26 8:40pm 229 18 G 24 38° 100% - - 38° 42° 34.7° - - -
2/26 8:30pm 235 16 G 23 38° 100% - - 38° 42° 34.7° - - -
2/26 8:20pm 240 17 G 24 38° 100% - - 38° 42° 34.7° - - -
2/26 8:10pm 232 17 G 25 38° 100% - - 38° 42° 34.7° - - -
2/26 8:00pm 227 18 G 23 38° 100% - - 38° 42° 34.7° - - -
2/26 7:50pm 239 17 G 23 38° 100% - - 38° 42° 34.7° - - -
2/26 7:40pm 238 16 G 23 38° 100% - - 38° 42° 34.7° - - -
2/26 7:30pm 236 15 G 20 38° 100% - - 38° 42° 34.7° - - -
2/26 7:20pm 233 16 G 21 38° 100% - - 38° 42° 34.7° - - -
2/26 7:10pm 243 18 G 28 38° 100% - - 38° 42° 34.7° - - -
2/26 7:00pm 248 14 G 22 38° 100% - - 38° 42° 34.7° - - -
2/26 6:50pm 243 11 G 19 38° 100% - - 38° 42° 34.7° - - -
2/26 6:40pm 244 13 G 19 38° 100% - - 38° 42° 34.7° - - -
2/26 6:30pm 245 13 G 21 38° 100% - - 38° 42° 34.7° - - -
2/26 6:20pm 246 13 G 20 38° 100% - - 38° 42° 34.7° - - -
2/26 6:10pm 241 15 G 23 39° 100% - - 39° 42° 34.7° - - -
2/26 6:00pm 234 15 G 20 39° 100% - - 39° 42° 34.7° - - -
2/26 5:50pm 237 17 G 23 39° 100% - - 39° 42° 34.7° - - -
2/26 5:40pm 236 16 G 22 39° 100% - - 39° 42° 34.7° - - -
2/26 5:30pm 239 17 G 23 39° 100% - - 39° 42° 34.7° - - -
2/26 5:20pm 235 17 G 24 39° 100% - - 39° 42° 34.7° - - -
2/26 5:10pm 241 17 G 24 39° 100% - - 39° 42° 34.7° - - -
2/26 5:00pm 243 16 G 24 40° 100% - - 40° 42° 34.7° - - -